createdAt,value
2023-03-17T00:00:26.604Z,2.90
2023-03-17T00:05:38.963Z,1.80
2023-03-17T00:10:42.779Z,4.50
2023-03-17T00:15:51.174Z,4.22
2023-03-17T00:20:54.749Z,5.70
2023-03-17T00:25:58.428Z,2.90
2023-03-17T00:31:03.653Z,3.88
2023-03-17T00:36:07.965Z,3.17
2023-03-17T00:41:12.855Z,2.35
2023-03-17T00:46:28.920Z,3.40
2023-03-17T00:51:34.009Z,7.05
2023-03-17T00:56:39.474Z,2.03
2023-03-17T01:01:43.039Z,2.35
2023-03-17T01:06:46.542Z,4.78
2023-03-17T01:11:49.981Z,3.72
2023-03-17T01:16:53.672Z,2.33
2023-03-17T01:21:56.827Z,3.55
2023-03-17T01:27:00.262Z,10.32
2023-03-17T01:32:03.448Z,4.22
2023-03-17T01:37:07.307Z,9.13
2023-03-17T01:42:10.920Z,1.58
2023-03-17T01:47:16.991Z,4.07
2023-03-17T01:52:23.366Z,3.22
2023-03-17T01:57:56.808Z,2.28
2023-03-17T02:03:00.199Z,5.32
2023-03-17T02:08:09.368Z,3.42
2023-03-17T02:13:14.194Z,3.40
2023-03-17T02:18:19.570Z,3.45
2023-03-17T02:23:24.020Z,3.33
2023-03-17T02:28:31.981Z,6.40
2023-03-17T02:33:35.575Z,2.63
2023-03-17T02:38:38.619Z,10.95
2023-03-17T02:43:43.198Z,8.20
2023-03-17T02:48:47.092Z,5.13
2023-03-17T02:53:50.512Z,2.00
2023-03-17T02:58:54.884Z,4.70
2023-03-17T03:03:59.701Z,3.63
2023-03-17T03:09:04.169Z,4.53
2023-03-17T03:14:08.496Z,2.60
2023-03-17T03:19:12.883Z,5.55
2023-03-17T03:24:16.309Z,3.35
2023-03-17T03:29:19.982Z,5.10
2023-03-17T03:34:23.415Z,3.45
2023-03-17T03:39:27.186Z,3.90
2023-03-17T03:44:30.294Z,4.15
2023-03-17T03:49:33.942Z,6.18
2023-03-17T03:54:37.115Z,4.38
2023-03-17T03:59:40.844Z,2.70
2023-03-17T04:04:44.527Z,2.53
2023-03-17T04:09:53.620Z,6.55
2023-03-17T04:14:57.646Z,5.45
2023-03-17T04:20:00.951Z,4.85
2023-03-17T04:25:04.334Z,5.40
2023-03-17T04:30:08.836Z,3.08
2023-03-17T04:35:15.874Z,5.80
2023-03-17T04:40:19.928Z,7.10
2023-03-17T04:45:23.074Z,2.67
2023-03-17T04:50:26.831Z,8.30
2023-03-17T04:55:29.952Z,3.72
2023-03-17T05:00:39.007Z,3.63
2023-03-17T05:05:42.654Z,8.27
2023-03-17T05:10:46.383Z,2.40
2023-03-17T05:15:51.931Z,9.30
2023-03-17T05:20:55.175Z,7.90
2023-03-17T05:25:58.682Z,8.10
2023-03-17T05:31:01.958Z,6.85
2023-03-17T05:36:05.981Z,6.93
2023-03-17T05:41:10.898Z,6.15
2023-03-17T05:46:14.085Z,4.95
2023-03-17T05:51:18.203Z,7.18
2023-03-17T05:56:22.241Z,8.18
2023-03-17T06:01:25.606Z,4.38
2023-03-17T06:06:29.243Z,4.88
2023-03-17T06:11:33.105Z,5.95
2023-03-17T06:16:36.253Z,5.07
2023-03-17T06:21:39.883Z,8.02
2023-03-17T06:26:44.003Z,5.93
2023-03-17T06:31:51.140Z,8.65
2023-03-17T06:36:54.826Z,3.63
2023-03-17T06:41:59.064Z,10.82
2023-03-17T06:47:02.472Z,4.43
2023-03-17T06:52:05.787Z,5.45
2023-03-17T06:57:09.981Z,4.78
2023-03-17T07:02:13.725Z,4.18
2023-03-17T07:07:17.103Z,4.82
2023-03-17T07:12:21.180Z,4.38
2023-03-17T07:17:24.333Z,5.10
2023-03-17T07:22:28.012Z,6.50
2023-03-17T07:27:32.506Z,7.88
2023-03-17T07:32:36.583Z,7.07
2023-03-17T07:37:39.838Z,6.25
2023-03-17T07:42:43.035Z,5.10
2023-03-17T07:47:47.074Z,6.07
2023-03-17T07:52:51.100Z,4.40
2023-03-17T07:57:54.501Z,10.18
2023-03-17T08:03:09.482Z,3.67
2023-03-17T08:08:14.310Z,2.63
2023-03-17T08:13:18.045Z,5.13
2023-03-17T08:18:21.411Z,5.57
2023-03-17T08:23:31.175Z,3.95
2023-03-17T08:28:38.830Z,4.47
2023-03-17T08:33:46.972Z,5.97
2023-03-17T08:38:51.620Z,5.45
2023-03-17T08:43:56.665Z,5.50
2023-03-17T08:49:01.329Z,4.75
2023-03-17T08:54:07.205Z,5.57
2023-03-17T08:59:10.940Z,5.10
2023-03-17T09:04:15.726Z,4.47
2023-03-17T09:09:22.145Z,6.25
2023-03-17T09:14:26.060Z,2.97
2023-03-17T09:19:29.553Z,5.72
2023-03-17T09:24:33.293Z,4.53
2023-03-17T09:29:36.519Z,5.93
2023-03-17T09:34:39.765Z,6.63
2023-03-17T09:39:43.045Z,7.32
2023-03-17T09:45:26.855Z,7.65
2023-03-17T09:50:45.771Z,6.07
2023-03-17T09:55:55.334Z,5.05
2023-03-17T10:01:00.192Z,5.88
2023-03-17T10:06:34.031Z,6.88
2023-03-17T10:11:46.323Z,6.07
2023-03-17T10:17:02.153Z,4.97
2023-03-17T10:22:16.450Z,8.13
2023-03-17T10:27:19.972Z,6.47
2023-03-17T10:32:23.100Z,9.77
2023-03-17T10:37:29.971Z,6.35
2023-03-17T10:42:33.385Z,5.75
2023-03-17T10:47:48.393Z,10.57
2023-03-17T10:53:05.179Z,6.70
2023-03-17T10:58:16.904Z,5.10
2023-03-17T11:03:36.249Z,8.75
2023-03-17T11:08:42.305Z,6.60
2023-03-17T11:13:45.439Z,5.53
2023-03-17T11:18:51.837Z,7.43
2023-03-17T11:29:20.026Z,6.13
2023-03-17T11:34:47.279Z,4.70
2023-03-17T11:40:10.586Z,4.90
2023-03-17T11:45:35.984Z,10.40
2023-03-17T11:50:50.987Z,6.75
2023-03-17T11:56:14.101Z,4.28
2023-03-17T12:01:24.604Z,6.93
2023-03-17T12:06:39.218Z,5.55
2023-03-17T12:11:45.714Z,3.70
2023-03-17T12:17:36.952Z,5.30
2023-03-17T12:22:51.141Z,6.28
2023-03-17T12:28:04.713Z,5.57
2023-03-17T12:33:20.446Z,3.90
2023-03-17T12:38:43.909Z,4.67
2023-03-17T12:44:00.132Z,8.93
2023-03-17T12:49:38.006Z,3.78
2023-03-17T12:54:46.785Z,3.60
2023-03-17T12:59:58.671Z,3.53
2023-03-17T13:05:08.202Z,7.05
2023-03-17T13:10:20.780Z,2.65
2023-03-17T13:15:24.469Z,3.30
2023-03-17T13:20:38.471Z,5.07
2023-03-17T13:25:42.063Z,3.38
2023-03-17T13:30:57.622Z,6.20
2023-03-17T13:36:31.806Z,5.20
2023-03-17T13:41:38.952Z,4.50
2023-03-17T13:46:49.514Z,7.53
2023-03-17T13:51:59.878Z,3.33
2023-03-17T13:57:28.779Z,5.53
2023-03-17T14:02:36.744Z,3.95
2023-03-17T14:07:59.147Z,3.08
2023-03-17T14:13:25.953Z,4.85
2023-03-17T14:18:50.831Z,6.18
2023-03-17T14:23:56.274Z,4.45
2023-03-17T14:29:05.188Z,7.32
2023-03-17T14:34:15.011Z,7.65
2023-03-17T14:39:24.392Z,2.85
2023-03-17T14:44:29.059Z,7.57
2023-03-17T14:49:33.778Z,6.15
2023-03-17T14:54:45.787Z,6.88
2023-03-17T15:00:04.669Z,5.43
2023-03-17T15:05:29.862Z,6.65
2023-03-17T15:10:42.789Z,4.70
2023-03-17T15:15:46.155Z,6.07
2023-03-17T15:20:50.320Z,5.15
2023-03-17T15:25:58.119Z,4.05
2023-03-17T15:31:13.361Z,3.75
2023-03-17T15:36:33.156Z,4.30
2023-03-17T15:41:37.185Z,3.95
2023-03-17T15:46:40.285Z,4.15
2023-03-17T15:51:44.025Z,6.85
2023-03-17T15:56:47.416Z,5.80
2023-03-17T16:01:50.992Z,5.55
2023-03-17T16:06:55.187Z,12.38
2023-03-17T16:11:58.615Z,6.65
2023-03-17T16:17:02.441Z,10.88
2023-03-17T16:22:06.311Z,6.50
2023-03-17T16:27:19.725Z,6.55
2023-03-17T16:32:22.845Z,11.02
2023-03-17T16:37:27.205Z,8.68
2023-03-17T16:42:32.545Z,10.77
2023-03-17T16:47:36.220Z,6.60
2023-03-17T16:52:39.430Z,11.10
2023-03-17T16:57:45.853Z,6.25
2023-03-17T17:02:50.036Z,12.70
2023-03-17T17:07:56.225Z,6.80
2023-03-17T17:13:00.020Z,9.13
2023-03-17T17:18:13.837Z,8.25
2023-03-17T17:23:23.415Z,5.53
2023-03-17T17:28:27.441Z,5.07
2023-03-17T17:33:30.635Z,9.57
2023-03-17T17:38:34.407Z,8.15
2023-03-17T17:43:37.996Z,5.63
2023-03-17T17:48:41.399Z,11.88
2023-03-17T17:53:45.446Z,6.88
2023-03-17T17:58:50.233Z,8.32
2023-03-17T18:03:53.410Z,8.95
2023-03-17T18:08:56.848Z,5.70
2023-03-17T18:14:00.197Z,4.38
2023-03-17T18:19:06.465Z,11.50
2023-03-17T18:24:10.223Z,11.00
2023-03-17T18:29:13.712Z,5.35
2023-03-17T18:34:24.574Z,9.38
2023-03-17T18:39:28.823Z,9.32
2023-03-17T18:44:33.340Z,9.82
2023-03-17T18:49:36.456Z,4.03
2023-03-17T18:54:39.613Z,8.63
2023-03-17T18:59:43.303Z,12.73
2023-03-17T19:04:48.148Z,6.82
2023-03-17T19:09:51.360Z,5.18
2023-03-17T19:14:55.167Z,8.68
2023-03-17T19:19:58.707Z,9.82
2023-03-17T19:25:04.692Z,8.82
2023-03-17T19:30:09.118Z,15.32
2023-03-17T19:35:12.914Z,11.45
2023-03-17T19:40:16.447Z,8.95
2023-03-17T19:45:19.994Z,9.90
2023-03-17T19:50:24.070Z,5.13
2023-03-17T19:55:30.707Z,7.10
2023-03-17T20:00:34.458Z,11.23
2023-03-17T20:05:37.664Z,9.80
2023-03-17T20:10:41.607Z,11.93
2023-03-17T20:15:45.385Z,12.15
2023-03-17T20:20:54.174Z,12.95
2023-03-17T20:25:58.169Z,10.30
2023-03-17T20:31:03.311Z,7.68
2023-03-17T20:36:06.863Z,12.52
2023-03-17T20:41:14.081Z,20.92
2023-03-17T20:46:19.893Z,21.77
2023-03-17T20:51:24.098Z,17.63
2023-03-17T20:56:30.103Z,19.98
2023-03-17T21:01:36.625Z,17.55
2023-03-17T21:06:41.723Z,16.73
2023-03-17T21:11:46.008Z,14.10
2023-03-17T21:16:49.671Z,12.90
2023-03-17T21:21:52.834Z,27.52
2023-03-17T21:26:56.198Z,30.80
2023-03-17T21:32:02.047Z,28.75
2023-03-17T21:37:06.540Z,20.67
2023-03-17T21:42:10.207Z,11.73
2023-03-17T21:47:13.427Z,11.13
2023-03-17T21:52:16.640Z,11.15
2023-03-17T21:57:19.757Z,6.68
2023-03-17T22:02:24.095Z,8.35
2023-03-17T22:07:28.375Z,7.93
2023-03-17T22:12:32.642Z,10.43
2023-03-17T22:17:37.102Z,8.70
2023-03-17T22:22:40.992Z,7.78
2023-03-17T22:27:44.438Z,10.75
2023-03-17T22:32:49.227Z,7.25
2023-03-17T22:37:52.749Z,7.30
2023-03-17T22:42:57.853Z,6.38
2023-03-17T22:48:01.659Z,6.85
2023-03-17T22:53:05.270Z,8.80
2023-03-17T22:58:08.893Z,9.88
2023-03-17T23:03:12.561Z,7.05
2023-03-17T23:08:18.222Z,6.05
2023-03-17T23:13:22.722Z,6.05
2023-03-17T23:18:26.395Z,6.10
2023-03-17T23:23:29.688Z,6.28
2023-03-17T23:28:33.473Z,12.50
2023-03-17T23:33:36.910Z,10.82
2023-03-17T23:38:42.895Z,10.45
2023-03-17T23:43:47.082Z,7.60
2023-03-17T23:48:50.607Z,10.02
2023-03-17T23:53:54.734Z,7.78
2023-03-17T23:58:58.015Z,6.47
